createdAt,value
2018-05-15T00:01:09.912Z,56.20
2018-05-15T00:03:37.975Z,56.90
2018-05-15T00:06:05.678Z,55.80
2018-05-15T00:11:01.181Z,56.20
2018-05-15T00:13:28.638Z,56.80
2018-05-15T00:15:56.630Z,56.50
2018-05-15T00:18:23.883Z,55.20
2018-05-15T00:20:51.172Z,56.10
2018-05-15T00:25:46.650Z,57.80
2018-05-15T00:28:13.910Z,56.20
2018-05-15T00:30:41.209Z,55.10
2018-05-15T00:33:08.510Z,57.10
2018-05-15T00:40:32.929Z,58.90
2018-05-15T00:45:28.422Z,57.10
2018-05-15T00:47:56.542Z,57.90
2018-05-15T00:50:23.972Z,56.50
2018-05-15T00:52:51.298Z,55.40
2018-05-15T00:55:30.884Z,55.20
2018-05-15T01:00:27.195Z,57.60
2018-05-15T01:02:55.218Z,57.90
2018-05-15T01:05:23.242Z,58.00
2018-05-15T01:07:51.322Z,58.20
2018-05-15T01:10:19.435Z,59.30
2018-05-15T01:12:47.459Z,62.10
2018-05-15T01:15:14.764Z,64.90
2018-05-15T01:17:42.068Z,63.80
2018-05-15T01:22:38.344Z,60.00
2018-05-15T01:30:02.330Z,56.10
2018-05-15T01:34:58.866Z,56.70
2018-05-15T01:39:55.229Z,58.60
2018-05-15T01:42:22.501Z,55.40
2018-05-15T01:47:18.175Z,57.50
2018-05-15T01:49:46.275Z,56.20
2018-05-15T01:57:10.790Z,55.10
2018-05-15T01:59:38.067Z,56.70
2018-05-15T02:02:05.366Z,56.00
2018-05-15T02:07:00.989Z,57.20
2018-05-15T02:09:28.341Z,56.40
2018-05-15T02:11:55.703Z,57.70
2018-05-15T02:14:23.005Z,57.50
2018-05-15T02:19:18.799Z,57.10
2018-05-15T02:21:46.101Z,57.00
2018-05-15T02:24:14.106Z,55.60
2018-05-15T02:26:41.435Z,56.00
2018-05-15T02:29:09.614Z,55.50
2018-05-15T02:31:37.959Z,56.60
2018-05-15T02:34:05.338Z,56.10
2018-05-15T02:36:32.623Z,55.10
2018-05-15T02:39:00.725Z,53.50
2018-05-15T02:41:28.087Z,53.30
2018-05-15T02:46:23.704Z,52.80
2018-05-15T02:48:51.845Z,51.90
2018-05-15T02:51:19.871Z,51.90
2018-05-15T02:53:47.279Z,51.30
2018-05-15T02:56:15.306Z,51.30
2018-05-15T02:58:42.566Z,51.60
2018-05-15T03:01:10.730Z,51.50
2018-05-15T03:03:38.020Z,50.50
2018-05-15T03:06:06.049Z,50.30
2018-05-15T03:08:34.088Z,50.30
2018-05-15T03:11:02.151Z,49.90
2018-05-15T03:13:29.551Z,49.30
2018-05-15T03:18:25.095Z,50.60
2018-05-15T03:23:21.427Z,49.90
2018-05-15T03:28:17.686Z,50.20
2018-05-15T03:33:13.329Z,51.70
2018-05-15T03:38:08.887Z,51.90
2018-05-15T03:40:36.167Z,51.00
2018-05-15T03:43:03.562Z,50.40
2018-05-15T03:45:31.687Z,50.90
2018-05-15T03:50:27.457Z,51.10
2018-05-15T03:52:55.606Z,51.00
2018-05-15T03:55:22.926Z,50.70
2018-05-15T03:57:50.942Z,50.60
2018-05-15T04:00:31.186Z,50.50
2018-05-15T04:03:10.682Z,50.40
2018-05-15T04:05:50.162Z,48.70
2018-05-15T04:08:18.094Z,50.00
2018-05-15T04:13:14.600Z,49.80
2018-05-15T04:15:42.041Z,49.30
2018-05-15T04:18:10.063Z,49.90
2018-05-15T04:20:38.091Z,49.30
2018-05-15T04:23:05.415Z,49.20
2018-05-15T04:25:32.735Z,49.40
2018-05-15T04:28:00.846Z,49.30
2018-05-15T04:30:28.127Z,49.60
2018-05-15T04:32:55.421Z,49.70
2018-05-15T04:35:23.582Z,49.00
2018-05-15T04:37:50.884Z,49.10
2018-05-15T04:40:18.914Z,48.60
2018-05-15T04:42:46.987Z,48.80
2018-05-15T04:45:15.011Z,48.50
2018-05-15T04:50:10.512Z,48.40
2018-05-15T04:55:06.087Z,49.00
2018-05-15T04:57:33.424Z,49.40
2018-05-15T05:00:01.509Z,48.30
2018-05-15T05:02:29.662Z,47.00
2018-05-15T05:07:25.983Z,51.70
2018-05-15T05:09:53.298Z,52.60
2018-05-15T05:12:21.378Z,52.90
2018-05-15T05:14:48.894Z,52.10
2018-05-15T05:17:16.271Z,50.90
2018-05-15T05:19:44.290Z,50.70
2018-05-15T05:22:11.735Z,50.30
2018-05-15T05:27:08.894Z,49.40
2018-05-15T05:29:36.881Z,48.80
2018-05-15T05:32:04.246Z,49.10
2018-05-15T05:34:31.579Z,48.90
2018-05-15T05:39:27.086Z,48.40
2018-05-15T05:41:54.442Z,48.20
2018-05-15T05:44:21.771Z,48.10
2018-05-15T05:46:49.774Z,48.00
2018-05-15T05:49:27.086Z,47.80
2018-05-15T05:51:54.693Z,48.00
2018-05-15T05:54:22.047Z,48.10
2018-05-15T05:56:49.338Z,47.90
2018-05-15T05:59:16.617Z,47.90
2018-05-15T06:01:43.910Z,48.00
2018-05-15T06:04:11.206Z,48.00
2018-05-15T06:06:39.220Z,48.00
2018-05-15T06:09:06.549Z,47.80
2018-05-15T06:16:32.199Z,47.10
2018-05-15T06:21:27.842Z,46.70
2018-05-15T06:26:24.139Z,46.10
2018-05-15T06:28:51.443Z,46.50
2018-05-15T06:31:19.624Z,46.70
2018-05-15T06:33:47.199Z,46.90
2018-05-15T06:38:42.770Z,46.30
2018-05-15T06:43:38.293Z,45.80
2018-05-15T06:46:06.302Z,45.90
2018-05-15T06:51:01.849Z,46.80
2018-05-15T06:53:29.986Z,46.80
2018-05-15T06:55:57.363Z,46.80
2018-05-15T06:58:24.710Z,46.50
2018-05-15T07:03:20.246Z,45.80
2018-05-15T07:05:48.251Z,46.40
2018-05-15T07:08:16.314Z,45.80
2018-05-15T07:10:44.070Z,46.00
2018-05-15T07:13:11.394Z,47.60
2018-05-15T07:15:39.421Z,47.30
2018-05-15T07:18:06.720Z,47.30
2018-05-15T07:20:34.783Z,47.00
2018-05-15T07:23:02.104Z,46.60
2018-05-15T07:27:57.750Z,47.30
2018-05-15T07:30:25.090Z,47.10
2018-05-15T07:32:52.347Z,47.10
2018-05-15T07:37:48.602Z,47.10
2018-05-15T07:40:16.275Z,47.20
2018-05-15T07:42:43.291Z,47.10
2018-05-15T07:47:39.558Z,47.20
2018-05-15T07:55:04.401Z,46.60
2018-05-15T07:57:31.779Z,45.80
2018-05-15T07:59:59.070Z,45.70
2018-05-15T08:02:26.415Z,45.50
2018-05-15T08:04:53.734Z,45.50
2018-05-15T08:07:21.805Z,45.30
2018-05-15T08:09:49.856Z,45.30
2018-05-15T08:14:45.373Z,45.10
2018-05-15T08:17:13.450Z,45.00
2018-05-15T08:22:09.785Z,42.70
2018-05-15T08:24:37.843Z,42.50
2018-05-15T08:27:05.120Z,41.90
2018-05-15T08:32:00.631Z,40.60
2018-05-15T08:34:27.929Z,41.00
2018-05-15T08:36:56.001Z,40.50
2018-05-15T08:39:23.307Z,40.00
2018-05-15T08:41:50.601Z,38.90
2018-05-15T08:44:18.621Z,40.10
2018-05-15T08:49:14.938Z,39.60
2018-05-15T08:51:42.255Z,39.00
2018-05-15T08:54:10.449Z,39.00
2018-05-15T08:56:38.762Z,37.80
2018-05-15T08:59:06.807Z,40.90
2018-05-15T09:04:03.125Z,39.80
2018-05-15T09:08:58.738Z,38.60
2018-05-15T09:11:26.889Z,39.80
2018-05-15T09:13:54.211Z,40.40
2018-05-15T09:16:21.530Z,40.40
2018-05-15T09:21:17.779Z,40.20
2018-05-15T09:23:45.874Z,39.00
2018-05-15T09:26:13.152Z,38.30
2018-05-15T09:28:41.190Z,36.80
2018-05-15T09:33:36.859Z,40.10
2018-05-15T09:36:04.434Z,40.80
2018-05-15T09:38:32.587Z,40.70
2018-05-15T09:41:00.589Z,40.70
2018-05-15T09:46:29.096Z,41.20
2018-05-15T09:48:57.250Z,40.90
2018-05-15T09:53:53.049Z,40.90
2018-05-15T09:56:20.303Z,41.20
2018-05-15T09:58:47.614Z,41.50
2018-05-15T10:03:43.910Z,36.40
2018-05-15T10:06:11.298Z,37.20
2018-05-15T10:11:06.829Z,35.50
2018-05-15T10:13:34.918Z,33.50
2018-05-15T10:20:58.838Z,36.80
2018-05-15T10:25:54.668Z,35.90
2018-05-15T10:28:21.999Z,36.70
2018-05-15T10:33:17.569Z,37.40
2018-05-15T10:35:45.602Z,35.90
2018-05-15T10:38:13.006Z,35.30
2018-05-15T10:40:41.011Z,34.50
2018-05-15T10:43:08.311Z,33.30
2018-05-15T10:48:03.837Z,33.00
2018-05-15T10:50:31.118Z,33.10
2018-05-15T10:52:58.450Z,32.70
2018-05-15T10:55:26.481Z,30.40
2018-05-15T10:57:54.527Z,28.40
2018-05-15T11:02:50.162Z,30.30
2018-05-15T11:05:18.210Z,31.50
2018-05-15T11:07:46.269Z,32.70
2018-05-15T11:10:14.334Z,32.00
2018-05-15T11:12:42.450Z,33.00
2018-05-15T11:15:09.779Z,32.70
2018-05-15T11:17:37.179Z,34.10
2018-05-15T11:20:17.118Z,35.60
2018-05-15T11:22:57.354Z,34.50
2018-05-15T11:25:25.291Z,35.10
2018-05-15T11:30:20.983Z,31.60
2018-05-15T11:32:49.235Z,29.20
2018-05-15T11:37:44.786Z,35.00
2018-05-15T11:42:41.276Z,35.90
2018-05-15T11:45:08.544Z,36.40
2018-05-15T11:47:37.019Z,36.80
2018-05-15T11:50:05.038Z,36.90
2018-05-15T11:52:32.180Z,37.00
2018-05-15T11:54:59.667Z,37.20
2018-05-15T11:57:26.960Z,37.20
2018-05-15T11:59:54.322Z,37.40
2018-05-15T12:02:21.721Z,37.40
2018-05-15T12:04:49.183Z,37.20
2018-05-15T12:07:17.234Z,36.60
2018-05-15T12:09:45.558Z,36.20
2018-05-15T12:12:12.901Z,34.50
2018-05-15T12:14:40.237Z,32.70
2018-05-15T12:17:08.279Z,31.60
2018-05-15T12:19:36.294Z,31.00
2018-05-15T12:22:04.375Z,30.60
2018-05-15T12:24:31.769Z,30.90
2018-05-15T12:29:27.335Z,31.40
2018-05-15T12:31:55.362Z,32.70
2018-05-15T12:34:22.679Z,34.00
2018-05-15T12:36:50.022Z,34.50
2018-05-15T12:39:18.067Z,33.90
2018-05-15T12:51:39.095Z,34.20
2018-05-15T12:56:34.790Z,34.10
2018-05-15T12:59:02.920Z,33.10
2018-05-15T13:06:26.723Z,31.10
2018-05-15T13:11:22.260Z,32.40
2018-05-15T13:13:49.734Z,33.20
2018-05-15T13:16:17.814Z,34.10
2018-05-15T13:18:45.217Z,34.80
2018-05-15T13:21:13.347Z,35.30
2018-05-15T13:23:41.477Z,35.80
2018-05-15T13:28:37.000Z,33.60
2018-05-15T13:31:05.017Z,32.90
2018-05-15T13:33:33.094Z,32.90
2018-05-15T13:36:01.148Z,32.80
2018-05-15T13:38:29.281Z,32.30
2018-05-15T13:40:57.550Z,32.90
2018-05-15T13:43:25.723Z,32.90
2018-05-15T13:45:53.006Z,32.50
2018-05-15T13:48:21.137Z,32.00
2018-05-15T13:50:49.189Z,31.50
2018-05-15T13:53:16.498Z,31.10
2018-05-15T13:55:44.561Z,31.30
2018-05-15T13:58:12.634Z,29.60
2018-05-15T14:03:08.315Z,31.40
2018-05-15T14:05:35.630Z,32.30
2018-05-15T14:08:03.032Z,31.80
2018-05-15T14:10:30.677Z,30.90
2018-05-15T14:12:58.846Z,31.70
2018-05-15T14:15:26.182Z,31.30
2018-05-15T14:17:53.512Z,31.20
2018-05-15T14:25:17.369Z,31.20
2018-05-15T14:27:45.477Z,31.10
2018-05-15T14:30:12.765Z,30.80
2018-05-15T14:32:40.161Z,30.80
2018-05-15T14:35:07.483Z,30.60
2018-05-15T14:40:03.664Z,30.50
2018-05-15T14:42:44.094Z,30.10
2018-05-15T14:45:14.935Z,30.10
2018-05-15T14:47:43.068Z,30.30
2018-05-15T14:50:11.599Z,31.50
2018-05-15T14:52:39.343Z,32.00
2018-05-15T15:00:03.264Z,32.30
2018-05-15T15:02:31.346Z,31.60
2018-05-15T15:04:59.714Z,31.30
2018-05-15T15:09:55.347Z,31.50
2018-05-15T15:12:22.616Z,32.50
2018-05-15T15:17:19.104Z,32.70
2018-05-15T15:19:47.443Z,32.50
2018-05-15T15:24:43.055Z,32.20
2018-05-15T15:27:10.364Z,32.30
2018-05-15T15:29:38.561Z,32.50
2018-05-15T15:34:35.042Z,31.80
2018-05-15T15:37:03.053Z,32.90
2018-05-15T15:39:31.239Z,32.80
2018-05-15T15:42:06.729Z,33.00
2018-05-15T15:44:46.707Z,32.90
2018-05-15T15:47:15.891Z,33.40
2018-05-15T15:49:45.767Z,33.50
2018-05-15T15:52:16.911Z,33.00
2018-05-15T15:54:46.047Z,33.20
2018-05-15T15:57:16.080Z,31.70
2018-05-15T15:59:54.027Z,33.00
2018-05-15T16:02:25.937Z,32.70
2018-05-15T16:04:53.307Z,33.20
2018-05-15T16:07:23.915Z,32.90
2018-05-15T16:09:56.207Z,33.40
2018-05-15T16:12:32.743Z,33.70
2018-05-15T16:15:02.613Z,33.80
2018-05-15T16:17:37.401Z,34.20
2018-05-15T16:20:06.631Z,34.10
2018-05-15T16:22:37.684Z,34.40
2018-05-15T16:25:07.887Z,34.60
2018-05-15T16:27:40.210Z,34.50
2018-05-15T16:30:13.329Z,34.10
2018-05-15T16:32:44.488Z,34.20
2018-05-15T16:35:16.672Z,34.50
2018-05-15T16:37:44.217Z,34.50
2018-05-15T16:40:15.586Z,34.10
2018-05-15T16:42:46.459Z,34.10
2018-05-15T16:45:22.550Z,34.10
2018-05-15T16:50:29.512Z,34.30
2018-05-15T16:58:17.831Z,34.40
2018-05-15T17:00:53.859Z,34.50
2018-05-15T17:03:23.609Z,34.70
2018-05-15T17:05:52.954Z,35.10
2018-05-15T17:08:21.337Z,35.30
2018-05-15T17:10:55.105Z,35.60
2018-05-15T17:13:28.060Z,35.40
2018-05-15T17:18:34.761Z,35.70
2018-05-15T17:21:06.577Z,34.80
2018-05-15T17:23:36.872Z,36.20
2018-05-15T17:26:10.152Z,36.40
2018-05-15T17:28:40.315Z,36.20
2018-05-15T17:31:11.412Z,36.20
2018-05-15T17:33:39.590Z,35.80
2018-05-15T17:36:09.508Z,36.60
2018-05-15T17:38:41.406Z,36.60
2018-05-15T17:41:09.702Z,36.30
2018-05-15T17:43:39.670Z,35.70
2018-05-15T17:46:10.897Z,35.60
2018-05-15T17:48:41.225Z,35.80
2018-05-15T17:51:13.932Z,35.80
2018-05-15T17:53:43.292Z,35.90
2018-05-15T17:56:13.363Z,35.90
2018-05-15T17:58:40.747Z,36.00
2018-05-15T18:01:10.528Z,36.10
2018-05-15T18:03:39.645Z,36.00
2018-05-15T18:06:11.775Z,36.00
2018-05-15T18:08:44.088Z,36.20
2018-05-15T18:11:13.816Z,36.30
2018-05-15T18:13:42.163Z,36.20
2018-05-15T18:16:14.304Z,36.20
2018-05-15T18:18:45.663Z,35.10
2018-05-15T18:21:16.920Z,35.90
2018-05-15T18:23:46.987Z,36.20
2018-05-15T18:26:15.475Z,36.20
2018-05-15T18:28:42.889Z,34.30
2018-05-15T18:31:11.100Z,37.30
2018-05-15T18:33:40.089Z,35.60
2018-05-15T18:36:09.416Z,39.00
2018-05-15T18:38:37.715Z,36.10
2018-05-15T18:41:08.960Z,38.80
2018-05-15T18:43:37.821Z,37.90
2018-05-15T18:46:06.255Z,35.60
2018-05-15T18:48:37.908Z,37.40
2018-05-15T18:51:07.501Z,37.70
2018-05-15T18:53:40.680Z,36.30
2018-05-15T18:56:12.565Z,36.50
2018-05-15T18:58:43.903Z,37.10
2018-05-15T19:01:13.549Z,37.40
2018-05-15T19:03:43.042Z,37.40
2018-05-15T19:06:11.619Z,36.80
2018-05-15T19:08:39.203Z,37.30
2018-05-15T19:11:08.541Z,38.00
2018-05-15T19:13:36.715Z,37.50
2018-05-15T19:16:04.084Z,34.80
2018-05-15T19:18:33.993Z,37.40
2018-05-15T19:21:02.224Z,38.30
2018-05-15T19:23:29.917Z,37.90
2018-05-15T19:25:59.279Z,38.60
2018-05-15T19:28:27.967Z,38.90
2018-05-15T19:30:55.596Z,38.50
2018-05-15T19:33:29.974Z,38.10
2018-05-15T19:36:06.843Z,38.20
2018-05-15T19:38:36.930Z,38.20
2018-05-15T19:41:06.237Z,38.90
2018-05-15T19:43:34.954Z,38.80
2018-05-15T19:46:03.787Z,38.20
2018-05-15T19:48:33.825Z,39.50
2018-05-15T19:51:04.680Z,38.50
2018-05-15T19:53:34.847Z,38.40
2018-05-15T19:56:03.115Z,36.90
2018-05-15T19:58:32.946Z,39.00
2018-05-15T20:01:01.942Z,39.70
2018-05-15T20:03:31.017Z,38.70
2018-05-15T20:06:01.365Z,39.00
2018-05-15T20:08:29.003Z,38.90
2018-05-15T20:10:56.335Z,39.70
2018-05-15T20:13:25.807Z,39.30
2018-05-15T20:15:58.591Z,39.50
2018-05-15T20:18:27.977Z,39.70
2018-05-15T20:20:57.272Z,38.00
2018-05-15T20:23:29.905Z,36.40
2018-05-15T20:25:58.262Z,39.00
2018-05-15T20:28:25.624Z,41.40
2018-05-15T20:30:54.016Z,43.00
2018-05-15T20:33:24.281Z,42.40
2018-05-15T20:35:55.154Z,43.70
2018-05-15T20:38:24.354Z,42.50
2018-05-15T20:40:52.808Z,39.20
2018-05-15T20:43:21.217Z,40.40
2018-05-15T20:45:52.936Z,42.00
2018-05-15T20:48:26.094Z,42.80
2018-05-15T20:50:57.372Z,42.90
2018-05-15T20:53:25.949Z,44.90
2018-05-15T20:55:54.319Z,46.10
2018-05-15T20:58:23.415Z,46.60
2018-05-15T21:00:52.555Z,46.40
2018-05-15T21:03:23.692Z,46.00
2018-05-15T21:05:53.770Z,46.70
2018-05-15T21:08:23.677Z,47.40
2018-05-15T21:11:00.688Z,47.80
2018-05-15T21:13:34.922Z,46.80
2018-05-15T21:16:07.826Z,45.60
2018-05-15T21:18:41.351Z,44.70
2018-05-15T21:21:09.427Z,44.40
2018-05-15T21:31:14.444Z,46.30
2018-05-15T21:33:43.811Z,44.80
2018-05-15T21:36:12.895Z,46.40
2018-05-15T21:38:42.175Z,45.80
2018-05-15T21:41:11.299Z,45.90
2018-05-15T21:43:38.623Z,46.30
2018-05-15T21:46:05.989Z,45.40
2018-05-15T21:48:33.463Z,44.90
2018-05-15T21:51:10.302Z,44.50
2018-05-15T21:53:37.714Z,44.10
2018-05-15T21:56:06.903Z,44.10
2018-05-15T21:58:34.473Z,42.40
2018-05-15T22:01:04.476Z,45.80
2018-05-15T22:03:35.802Z,48.50
2018-05-15T22:06:06.527Z,48.50
2018-05-15T22:08:34.645Z,49.80
2018-05-15T22:11:12.794Z,50.70
2018-05-15T22:13:52.080Z,51.70
2018-05-15T22:16:37.592Z,51.90
2018-05-15T22:22:04.222Z,49.60
2018-05-15T22:24:38.405Z,46.60
2018-05-15T22:29:33.968Z,48.30
2018-05-15T22:32:02.045Z,46.90
2018-05-15T22:34:29.464Z,46.10
2018-05-15T22:39:25.242Z,44.90
2018-05-15T22:41:52.540Z,42.90
2018-05-15T22:46:48.834Z,45.40
2018-05-15T22:49:16.309Z,45.50
2018-05-15T22:51:44.371Z,45.40
2018-05-15T22:56:40.049Z,47.40
2018-05-15T22:59:07.386Z,47.80
2018-05-15T23:06:31.201Z,46.50
2018-05-15T23:08:59.206Z,46.30
2018-05-15T23:11:27.303Z,46.30
2018-05-15T23:16:24.416Z,47.30
2018-05-15T23:18:51.733Z,46.50
2018-05-15T23:21:19.117Z,46.20
2018-05-15T23:23:46.706Z,45.50
2018-05-15T23:28:42.279Z,46.30
2018-05-15T23:33:38.630Z,48.10
2018-05-15T23:36:06.731Z,48.30
2018-05-15T23:38:34.031Z,48.90
2018-05-15T23:41:02.039Z,49.50
2018-05-15T23:43:30.083Z,51.00
2018-05-15T23:48:26.643Z,52.30
2018-05-15T23:50:53.954Z,53.00
2018-05-15T23:53:22.056Z,53.20
2018-05-15T23:58:17.616Z,49.80
